Oneiro — SVA3427 — position and weather

sailwx.info

Track history (hours):
 
Tides and Currents Weather Stations Pressure Air Temp Water Temp Dewpoint Dewpoint Depression Visibility Wind Speed Wind Dir Waves Ship Positions

Oneiro

Last reported at 2015-Jul-28 05:09 UTC. Time now 2015-Jul-30 16:08 UTC.
Position N 36°37' E 024°53'.

Length 53 m; draft 3 m.

Type: Pleasure craft. MMSI: 241024000.

Date/timePositionNaut miles runAvg speedWind from/ knotsBaromVisibWave heightAir tempDewpointWater temp
2015-Jul-28 05:09N 36°37' E 024°53'814.0
2015-Jul-28 04:33N 36°33' E 025°02'1413.9
2015-Jul-28 03:33N 36°29' E 025°18'4 3.7
2015-Jul-28 02:33N 36°28' E 025°23'0 0.0
2015-Jul-28 01:32N 36°28' E 025°23'0 0.0
2015-Jul-28 00:32N 36°28' E 025°23'0 0.0
2015-Jul-27 23:32N 36°28' E 025°23'0 0.0
2015-Jul-27 22:32N 36°28' E 025°23'0 0.0
2015-Jul-27 21:32N 36°28' E 025°23'0 0.0
2015-Jul-27 20:33N 36°28' E 025°23'0 0.0
2015-Jul-27 19:33N 36°28' E 025°23'0 0.0
2015-Jul-27 18:32N 36°28' E 025°23'0 0.0
2015-Jul-27 17:31N 36°28' E 025°23'0 0.0
2015-Jul-27 16:32N 36°28' E 025°23'2311.5
2015-Jul-27 14:32N 36°49' E 025°33'8 8.5
2015-Jul-27 13:33N 36°57' E 025°37'0 0.0
2015-Jul-27 12:33N 36°57' E 025°37'0 0.0
2015-Jul-27 11:33N 36°57' E 025°37'0 0.0
2015-Jul-27 10:32N 36°57' E 025°37'0 0.0
2015-Jul-27 09:31N 36°57' E 025°37'2 2.6
2015-Jul-27 08:32N 36°59' E 025°38'1414.2
2015-Jul-27 07:33N 37°13' E 025°33'1413.9
2015-Jul-27 06:34N 37°22' E 025°20'5 4.8
2015-Jul-27 05:33N 37°27' E 025°20'0 0.0
2015-Jul-27 04:33N 37°27' E 025°20'0 0.0
2015-Jul-27 03:34N 37°27' E 025°20'0 0.0
2015-Jul-27 02:33N 37°27' E 025°20'0 0.0
2015-Jul-27 01:33N 37°27' E 025°20'0 0.0
2015-Jul-27 00:33N 37°27' E 025°20'0 0.0
2015-Jul-26 23:33N 37°27' E 025°20'0 0.0
2015-Jul-26 22:34N 37°27' E 025°20'0 0.0
2015-Jul-26 21:33N 37°27' E 025°20'0 0.0
2015-Jul-26 20:33N 37°27' E 025°20'0 0.0
2015-Jul-26 19:33N 37°27' E 025°20'0 0.0
2015-Jul-26 18:32N 37°27' E 025°20'0 0.0
2015-Jul-26 17:32N 37°27' E 025°20'0 0.0
2015-Jul-26 16:32N 37°27' E 025°20'0 0.0
2015-Jul-26 15:33N 37°27' E 025°20'0 0.1
2015-Jul-26 14:33N 37°27' E 025°20'3 2.6
2015-Jul-26 13:33N 37°29' E 025°22'0 0.4
2015-Jul-26 12:33N 37°28' E 025°22'1 0.6
2015-Jul-26 11:31N 37°29' E 025°22'0 0.0
2015-Jul-26 10:27N 37°29' E 025°22'0 0.0
2015-Jul-26 08:18N 37°29' E 025°22'2 2.4
2015-Jul-26 07:33N 37°30' E 025°20'1414.6
2015-Jul-26 06:33N 37°27' E 025°02'5 4.5
2015-Jul-26 05:33N 37°26' E 024°57'0 0.0
2015-Jul-26 04:32N 37°26' E 024°57'0 0.0
2015-Jul-26 03:33N 37°26' E 024°57'0 0.0
2015-Jul-26 02:33N 37°26' E 024°57'0 0.0
2015-Jul-26 01:33N 37°26' E 024°57'0 0.0
2015-Jul-26 00:32N 37°26' E 024°57'0 0.0
2015-Jul-25 23:33N 37°26' E 024°57'0 0.0
2015-Jul-25 22:33N 37°26' E 024°57'0 0.0
2015-Jul-25 21:32N 37°26' E 024°57'0 0.0
2015-Jul-25 20:32N 37°26' E 024°57'0 0.0
2015-Jul-25 19:33N 37°26' E 024°57'0 0.0
2015-Jul-25 18:33N 37°26' E 024°57'6 5.4
2015-Jul-25 17:23N 37°31' E 024°51'42 6.1
2015-Jul-25 10:32N 37°37' E 023°59'1414.1
2015-Jul-25 09:33N 37°47' E 023°47'6 6.3
2015-Jul-25 08:33N 37°53' E 023°44'0 0.0
2015-Jul-25 07:33N 37°53' E 023°44'0 0.0
2015-Jul-25 06:33N 37°53' E 023°44'0 0.0
2015-Jul-25 05:33N 37°53' E 023°44'0 0.0
2015-Jul-25 04:33N 37°53' E 023°44'0 0.0
2015-Jul-25 03:33N 37°53' E 023°44'0 0.0
2015-Jul-25 02:33N 37°53' E 023°44'0 0.0
2015-Jul-25 01:33N 37°53' E 023°44'0 0.0
2015-Jul-25 00:33N 37°53' E 023°44'0 0.0
2015-Jul-24 23:33N 37°53' E 023°44'0 0.0
2015-Jul-24 22:33N 37°53' E 023°44'0 0.0
2015-Jul-24 21:33N 37°53' E 023°44'0 0.0
2015-Jul-24 20:33N 37°53' E 023°44'0 0.0
2015-Jul-24 19:33N 37°53' E 023°44'0 0.0
2015-Jul-24 18:33N 37°53' E 023°44'0 0.0
2015-Jul-24 17:34N 37°53' E 023°44'0 0.0
2015-Jul-24 16:33N 37°53' E 023°44'0 0.0
2015-Jul-24 15:33N 37°53' E 023°44'0 0.0
2015-Jul-24 14:33N 37°53' E 023°44'0 0.0
2015-Jul-24 13:33N 37°53' E 023°44'0 0.0
2015-Jul-24 12:33N 37°53' E 023°44'5212.6
2015-Jul-24 08:23N 37°31' E 024°44'1315.3
2015-Jul-24 07:33N 37°30' E 024°60'1514.8
2015-Jul-24 06:33N 37°25' E 025°17'3 2.7
2015-Jul-24 05:33N 37°25' E 025°21'4 4.3
2015-Jul-24 04:33N 37°22' E 025°17'2 2.1
2015-Jul-24 03:34N 37°23' E 025°14'0 0.0
2015-Jul-24 02:33N 37°23' E 025°14'0 0.0
2015-Jul-24 01:34N 37°23' E 025°14'0 0.0
2015-Jul-24 00:34N 37°23' E 025°14'0 0.0
2015-Jul-23 23:33N 37°23' E 025°14'0 0.0
2015-Jul-23 22:33N 37°23' E 025°14'0 0.0
2015-Jul-23 21:34N 37°23' E 025°14'0 0.0
2015-Jul-23 20:33N 37°23' E 025°14'0 0.0
2015-Jul-23 19:33N 37°23' E 025°14'0 0.0
2015-Jul-23 18:33N 37°23' E 025°14'0 0.0
2015-Jul-23 17:34N 37°23' E 025°14'0 0.0
2015-Jul-23 16:33N 37°23' E 025°14'0 0.0
2015-Jul-23 15:34N 37°23' E 025°14'0 0.0
2015-Jul-23 14:34N 37°23' E 025°14'0 0.0
2015-Jul-23 13:33N 37°23' E 025°14'0 0.0
2015-Jul-23 12:33N 37°23' E 025°14'0 0.0
2015-Jul-23 11:33N 37°23' E 025°14'0 0.0
2015-Jul-23 10:34N 37°23' E 025°14'0 0.0
2015-Jul-23 09:33N 37°23' E 025°14'0 0.0
2015-Jul-23 08:33N 37°23' E 025°14'0 0.0
2015-Jul-23 07:34N 37°23' E 025°14'0 0.0
2015-Jul-23 06:33N 37°23' E 025°14'0 0.3
2015-Jul-23 05:34N 37°23' E 025°14'1212.3
2015-Jul-23 04:33N 37°10' E 025°15'3 3.4
2015-Jul-23 03:33N 37°08' E 025°13'0 0.0
2015-Jul-23 02:33N 37°08' E 025°13'0 0.0
2015-Jul-23 01:33N 37°08' E 025°13'0 0.0
2015-Jul-23 00:33N 37°08' E 025°13'0 0.0
2015-Jul-22 23:34N 37°08' E 025°13'0 0.0
2015-Jul-22 22:34N 37°08' E 025°13'0 0.0
2015-Jul-22 21:34N 37°08' E 025°13'0 0.0
2015-Jul-22 20:33N 37°08' E 025°13'0 0.0
2015-Jul-22 19:33N 37°08' E 025°13'0 0.0
2015-Jul-22 18:33N 37°08' E 025°13'0 0.0
2015-Jul-22 17:34N 37°08' E 025°13'0 0.0
2015-Jul-22 16:34N 37°08' E 025°13'0 0.0
2015-Jul-22 15:33N 37°08' E 025°13'0 0.0
2015-Jul-22 14:33N 37°08' E 025°13'0 0.0
2015-Jul-22 13:34N 37°08' E 025°13'0 0.0
2015-Jul-22 12:33N 37°08' E 025°13'0 0.0
2015-Jul-22 11:33N 37°08' E 025°13'0 0.0
2015-Jul-22 10:33N 37°08' E 025°13'0 0.0
2015-Jul-22 09:34N 37°08' E 025°13'0 0.0
2015-Jul-22 08:33N 37°08' E 025°13'0 0.0
2015-Jul-22 07:33N 37°08' E 025°13'4 3.7
2015-Jul-22 06:33N 37°07' E 025°18'19 0.8
2015-Jul-21 05:19N 36°54' E 025°36'1 1.8
2015-Jul-21 04:32N 36°56' E 025°36'6 0.2
2015-Jul-19 17:33N 36°51' E 025°30'  
Track history (hours):
 
Tides and Currents Weather Stations Pressure Air Temp Water Temp Dewpoint Dewpoint Depression Visibility Wind Speed Wind Dir Waves Ship Positions

Oneiro

Last reported at 2015-Jul-28 05:09 UTC. Time now 2015-Jul-30 16:08 UTC.
Position N 36°37' E 024°53'.

Length 53 m; draft 3 m.

Type: Pleasure craft. MMSI: 241024000.

Date/timePositionNaut miles runAvg speedWind from/ knotsBaromVisibWave heightAir tempDewpointWater temp
2015-Jul-28 05:09N 36°37' E 024°53'814.0
2015-Jul-28 04:33N 36°33' E 025°02'1413.9
2015-Jul-28 03:33N 36°29' E 025°18'4 3.7
2015-Jul-28 02:33N 36°28' E 025°23'0 0.0
2015-Jul-28 01:32N 36°28' E 025°23'0 0.0
2015-Jul-28 00:32N 36°28' E 025°23'0 0.0
2015-Jul-27 23:32N 36°28' E 025°23'0 0.0
2015-Jul-27 22:32N 36°28' E 025°23'0 0.0
2015-Jul-27 21:32N 36°28' E 025°23'0 0.0
2015-Jul-27 20:33N 36°28' E 025°23'0 0.0
2015-Jul-27 19:33N 36°28' E 025°23'0 0.0
2015-Jul-27 18:32N 36°28' E 025°23'0 0.0
2015-Jul-27 17:31N 36°28' E 025°23'0 0.0
2015-Jul-27 16:32N 36°28' E 025°23'2311.5
2015-Jul-27 14:32N 36°49' E 025°33'8 8.5
2015-Jul-27 13:33N 36°57' E 025°37'0 0.0
2015-Jul-27 12:33N 36°57' E 025°37'0 0.0
2015-Jul-27 11:33N 36°57' E 025°37'0 0.0
2015-Jul-27 10:32N 36°57' E 025°37'0 0.0
2015-Jul-27 09:31N 36°57' E 025°37'2 2.6
2015-Jul-27 08:32N 36°59' E 025°38'1414.2
2015-Jul-27 07:33N 37°13' E 025°33'1413.9
2015-Jul-27 06:34N 37°22' E 025°20'5 4.8
2015-Jul-27 05:33N 37°27' E 025°20'0 0.0
2015-Jul-27 04:33N 37°27' E 025°20'0 0.0
2015-Jul-27 03:34N 37°27' E 025°20'0 0.0
2015-Jul-27 02:33N 37°27' E 025°20'0 0.0
2015-Jul-27 01:33N 37°27' E 025°20'0 0.0
2015-Jul-27 00:33N 37°27' E 025°20'0 0.0
2015-Jul-26 23:33N 37°27' E 025°20'0 0.0
2015-Jul-26 22:34N 37°27' E 025°20'0 0.0
2015-Jul-26 21:33N 37°27' E 025°20'0 0.0
2015-Jul-26 20:33N 37°27' E 025°20'0 0.0
2015-Jul-26 19:33N 37°27' E 025°20'0 0.0
2015-Jul-26 18:32N 37°27' E 025°20'0 0.0
2015-Jul-26 17:32N 37°27' E 025°20'0 0.0
2015-Jul-26 16:32N 37°27' E 025°20'0 0.0
2015-Jul-26 15:33N 37°27' E 025°20'0 0.1
2015-Jul-26 14:33N 37°27' E 025°20'3 2.6
2015-Jul-26 13:33N 37°29' E 025°22'0 0.4
2015-Jul-26 12:33N 37°28' E 025°22'1 0.6
2015-Jul-26 11:31N 37°29' E 025°22'0 0.0
2015-Jul-26 10:27N 37°29' E 025°22'0 0.0
2015-Jul-26 08:18N 37°29' E 025°22'2 2.4
2015-Jul-26 07:33N 37°30' E 025°20'1414.6
2015-Jul-26 06:33N 37°27' E 025°02'5 4.5
2015-Jul-26 05:33N 37°26' E 024°57'0 0.0
2015-Jul-26 04:32N 37°26' E 024°57'0 0.0
2015-Jul-26 03:33N 37°26' E 024°57'0 0.0
2015-Jul-26 02:33N 37°26' E 024°57'0 0.0
2015-Jul-26 01:33N 37°26' E 024°57'0 0.0
2015-Jul-26 00:32N 37°26' E 024°57'0 0.0
2015-Jul-25 23:33N 37°26' E 024°57'0 0.0
2015-Jul-25 22:33N 37°26' E 024°57'0 0.0
2015-Jul-25 21:32N 37°26' E 024°57'0 0.0
2015-Jul-25 20:32N 37°26' E 024°57'0 0.0
2015-Jul-25 19:33N 37°26' E 024°57'0 0.0
2015-Jul-25 18:33N 37°26' E 024°57'6 5.4
2015-Jul-25 17:23N 37°31' E 024°51'42 6.1
2015-Jul-25 10:32N 37°37' E 023°59'1414.1
2015-Jul-25 09:33N 37°47' E 023°47'6 6.3
2015-Jul-25 08:33N 37°53' E 023°44'0 0.0
2015-Jul-25 07:33N 37°53' E 023°44'0 0.0
2015-Jul-25 06:33N 37°53' E 023°44'0 0.0
2015-Jul-25 05:33N 37°53' E 023°44'0 0.0
2015-Jul-25 04:33N 37°53' E 023°44'0 0.0
2015-Jul-25 03:33N 37°53' E 023°44'0 0.0
2015-Jul-25 02:33N 37°53' E 023°44'0 0.0
2015-Jul-25 01:33N 37°53' E 023°44'0 0.0
2015-Jul-25 00:33N 37°53' E 023°44'0 0.0
2015-Jul-24 23:33N 37°53' E 023°44'0 0.0
2015-Jul-24 22:33N 37°53' E 023°44'0 0.0
2015-Jul-24 21:33N 37°53' E 023°44'0 0.0
2015-Jul-24 20:33N 37°53' E 023°44'0 0.0
2015-Jul-24 19:33N 37°53' E 023°44'0 0.0
2015-Jul-24 18:33N 37°53' E 023°44'0 0.0
2015-Jul-24 17:34N 37°53' E 023°44'0 0.0
2015-Jul-24 16:33N 37°53' E 023°44'0 0.0
2015-Jul-24 15:33N 37°53' E 023°44'0 0.0
2015-Jul-24 14:33N 37°53' E 023°44'0 0.0
2015-Jul-24 13:33N 37°53' E 023°44'0 0.0
2015-Jul-24 12:33N 37°53' E 023°44'5212.6
2015-Jul-24 08:23N 37°31' E 024°44'1315.3
2015-Jul-24 07:33N 37°30' E 024°60'1514.8
2015-Jul-24 06:33N 37°25' E 025°17'3 2.7
2015-Jul-24 05:33N 37°25' E 025°21'4 4.3
2015-Jul-24 04:33N 37°22' E 025°17'2 2.1
2015-Jul-24 03:34N 37°23' E 025°14'0 0.0
2015-Jul-24 02:33N 37°23' E 025°14'0 0.0
2015-Jul-24 01:34N 37°23' E 025°14'0 0.0
2015-Jul-24 00:34N 37°23' E 025°14'0 0.0
2015-Jul-23 23:33N 37°23' E 025°14'0 0.0
2015-Jul-23 22:33N 37°23' E 025°14'0 0.0
2015-Jul-23 21:34N 37°23' E 025°14'0 0.0
2015-Jul-23 20:33N 37°23' E 025°14'0 0.0
2015-Jul-23 19:33N 37°23' E 025°14'0 0.0
2015-Jul-23 18:33N 37°23' E 025°14'0 0.0
2015-Jul-23 17:34N 37°23' E 025°14'0 0.0
2015-Jul-23 16:33N 37°23' E 025°14'0 0.0
2015-Jul-23 15:34N 37°23' E 025°14'0 0.0
2015-Jul-23 14:34N 37°23' E 025°14'0 0.0
2015-Jul-23 13:33N 37°23' E 025°14'0 0.0
2015-Jul-23 12:33N 37°23' E 025°14'0 0.0
2015-Jul-23 11:33N 37°23' E 025°14'0 0.0
2015-Jul-23 10:34N 37°23' E 025°14'0 0.0
2015-Jul-23 09:33N 37°23' E 025°14'0 0.0
2015-Jul-23 08:33N 37°23' E 025°14'0 0.0
2015-Jul-23 07:34N 37°23' E 025°14'0 0.0
2015-Jul-23 06:33N 37°23' E 025°14'0 0.3
2015-Jul-23 05:34N 37°23' E 025°14'1212.3
2015-Jul-23 04:33N 37°10' E 025°15'3 3.4
2015-Jul-23 03:33N 37°08' E 025°13'0 0.0
2015-Jul-23 02:33N 37°08' E 025°13'0 0.0
2015-Jul-23 01:33N 37°08' E 025°13'0 0.0
2015-Jul-23 00:33N 37°08' E 025°13'0 0.0
2015-Jul-22 23:34N 37°08' E 025°13'0 0.0
2015-Jul-22 22:34N 37°08' E 025°13'0 0.0
2015-Jul-22 21:34N 37°08' E 025°13'0 0.0
2015-Jul-22 20:33N 37°08' E 025°13'0 0.0
2015-Jul-22 19:33N 37°08' E 025°13'0 0.0
2015-Jul-22 18:33N 37°08' E 025°13'0 0.0
2015-Jul-22 17:34N 37°08' E 025°13'0 0.0
2015-Jul-22 16:34N 37°08' E 025°13'0 0.0
2015-Jul-22 15:33N 37°08' E 025°13'0 0.0
2015-Jul-22 14:33N 37°08' E 025°13'0 0.0
2015-Jul-22 13:34N 37°08' E 025°13'0 0.0
2015-Jul-22 12:33N 37°08' E 025°13'0 0.0
2015-Jul-22 11:33N 37°08' E 025°13'0 0.0
2015-Jul-22 10:33N 37°08' E 025°13'0 0.0
2015-Jul-22 09:34N 37°08' E 025°13'0 0.0
2015-Jul-22 08:33N 37°08' E 025°13'0 0.0
2015-Jul-22 07:33N 37°08' E 025°13'4 3.7
2015-Jul-22 06:33N 37°07' E 025°18'19 0.8
2015-Jul-21 05:19N 36°54' E 025°36'1 1.8
2015-Jul-21 04:32N 36°56' E 025°36'6 0.2
2015-Jul-19 17:33N 36°51' E 025°30'  

Dump ship's entire track history